createdAt,value
2018-12-22T00:02:25.805Z,99048.69
2018-12-22T00:07:29.708Z,99040.25
2018-12-22T00:12:33.687Z,99039.34
2018-12-22T00:17:37.724Z,99035.91
2018-12-22T00:22:41.707Z,99037.07
2018-12-22T00:27:46.556Z,99027.88
2018-12-22T00:32:50.356Z,99029.95
2018-12-22T00:37:54.261Z,99028.77
2018-12-22T00:42:58.273Z,99029.88
2018-12-22T00:48:02.128Z,99028.64
2018-12-22T00:53:06.210Z,99025.84
2018-12-22T00:58:10.015Z,99003.80
2018-12-22T01:03:13.797Z,99001.94
2018-12-22T01:08:18.250Z,98985.39
2018-12-22T01:13:22.150Z,98984.47
2018-12-22T01:18:25.942Z,98985.33
2018-12-22T01:23:29.754Z,98974.45
2018-12-22T01:28:39.403Z,98984.89
2018-12-22T01:33:39.390Z,98972.36
2018-12-22T01:38:43.341Z,98968.76
2018-12-22T01:43:47.456Z,98956.33
2018-12-22T01:48:51.293Z,98959.30
2018-12-22T01:53:55.252Z,98969.44
2018-12-22T01:58:59.437Z,98968.69
2018-12-22T02:04:03.467Z,98966.45
2018-12-22T02:09:07.821Z,98956.41
2018-12-22T02:14:11.613Z,98946.94
2018-12-22T02:19:15.441Z,98950.92
2018-12-22T02:24:19.666Z,98949.63
2018-12-22T02:29:23.583Z,98949.63
2018-12-22T02:34:27.415Z,98941.09
2018-12-22T02:39:31.267Z,98936.24
2018-12-22T02:44:35.073Z,98947.44
2018-12-22T02:49:38.909Z,98936.17
2018-12-22T02:54:42.847Z,98933.67
2018-12-22T02:59:46.618Z,98924.30
2018-12-22T03:04:50.380Z,98922.40
2018-12-22T03:09:54.225Z,98909.39
2018-12-22T03:14:58.172Z,98903.25
2018-12-22T03:20:02.190Z,98902.23
2018-12-22T03:25:07.695Z,98892.75
2018-12-22T03:30:11.733Z,98887.06
2018-12-22T03:35:15.516Z,98880.54
2018-12-22T03:40:19.239Z,98882.59
2018-12-22T03:45:23.032Z,98890.13
2018-12-22T03:50:27.734Z,98891.27
2018-12-22T03:55:31.800Z,98898.98
2018-12-22T04:00:35.648Z,98903.87
2018-12-22T04:05:41.030Z,98880.80
2018-12-22T04:10:44.840Z,98881.31
2018-12-22T04:15:48.814Z,98885.58
2018-12-22T04:20:52.593Z,98888.14
2018-12-22T04:25:56.583Z,98876.34
2018-12-22T04:31:00.611Z,98885.42
2018-12-22T04:36:06.468Z,98886.08
2018-12-22T04:41:10.311Z,98888.06
2018-12-22T04:46:16.681Z,98889.89
2018-12-22T04:51:20.646Z,98898.33
2018-12-22T04:56:26.223Z,98892.02
2018-12-22T05:01:30.085Z,98903.47
2018-12-22T05:06:33.987Z,98902.41
2018-12-22T05:11:37.785Z,98891.73
2018-12-22T05:16:41.530Z,98891.05
2018-12-22T05:21:45.474Z,98894.36
2018-12-22T05:26:49.272Z,98908.21
2018-12-22T05:31:53.239Z,98909.95
2018-12-22T05:36:57.192Z,98905.47
2018-12-22T05:42:01.268Z,98905.64
2018-12-22T05:47:05.249Z,98909.26
2018-12-22T05:52:09.478Z,98915.06
2018-12-22T05:57:14.351Z,98920.69
2018-12-22T06:02:19.675Z,98919.27
2018-12-22T06:07:23.767Z,98914.16
2018-12-22T06:12:27.545Z,98922.77
2018-12-22T06:17:31.535Z,98911.41
2018-12-22T06:22:35.348Z,98910.22
2018-12-22T06:27:39.174Z,98924.19
2018-12-22T06:32:45.592Z,98915.03
2018-12-22T06:37:49.478Z,98927.42
2018-12-22T06:42:53.432Z,98944.70
2018-12-22T06:47:59.401Z,98933.99
2018-12-22T06:53:03.401Z,98924.51
2018-12-22T06:58:07.549Z,98923.92
2018-12-22T07:03:11.236Z,98917.29
2018-12-22T07:08:15.460Z,98916.58
2018-12-22T07:13:19.499Z,98919.35
2018-12-22T07:18:23.297Z,98914.98
2018-12-22T07:23:27.340Z,98915.81
2018-12-22T07:28:31.524Z,98925.00
2018-12-22T07:33:37.899Z,98931.54
2018-12-22T07:38:41.834Z,98938.59
2018-12-22T07:43:46.321Z,98939.47
2018-12-22T07:48:50.229Z,98943.69
2018-12-22T07:53:55.291Z,98942.03
2018-12-22T07:58:59.247Z,98939.56
2018-12-22T08:04:03.197Z,98950.66
2018-12-22T08:09:07.846Z,98947.13
2018-12-22T08:14:11.759Z,98944.44
2018-12-22T08:19:17.960Z,98943.11
2018-12-22T08:24:21.770Z,98954.67
2018-12-22T08:29:25.706Z,98954.33
2018-12-22T08:34:29.519Z,98941.86
2018-12-22T08:39:33.799Z,98918.05
2018-12-22T08:44:37.968Z,98915.74
2018-12-22T08:49:42.341Z,98895.45
2018-12-22T08:54:46.593Z,98896.08
2018-12-22T08:59:53.047Z,98891.17
2018-12-22T09:04:57.776Z,98896.75
2018-12-22T09:10:02.091Z,98887.23
2018-12-22T09:15:09.964Z,98875.50
2018-12-22T09:20:15.997Z,98867.67
2018-12-22T09:25:19.755Z,98871.91
2018-12-22T09:30:23.671Z,98863.08
2018-12-22T09:35:27.464Z,98861.50
2018-12-22T09:40:31.156Z,98835.37
2018-12-22T09:45:34.891Z,98843.67
2018-12-22T09:50:38.831Z,98834.23
2018-12-22T09:55:43.266Z,98835.14
2018-12-22T10:00:47.183Z,98819.05
2018-12-22T10:05:51.162Z,98800.07
2018-12-22T10:10:54.841Z,98791.34
2018-12-22T10:15:58.750Z,98783.21
2018-12-22T10:21:02.818Z,98777.87
2018-12-22T10:26:06.714Z,98780.44
2018-12-22T10:31:17.964Z,98765.95
2018-12-22T10:36:19.955Z,98764.36
2018-12-22T10:41:23.776Z,98769.66
2018-12-22T10:46:27.561Z,98745.23
2018-12-22T10:51:31.572Z,98729.54
2018-12-22T10:56:35.484Z,98722.58
2018-12-22T11:01:39.292Z,98714.73
2018-12-22T11:06:44.089Z,98715.66
2018-12-22T11:11:47.930Z,98708.19
2018-12-22T11:16:53.875Z,98700.25
2018-12-22T11:21:57.575Z,98696.38
2018-12-22T11:27:01.874Z,98688.76
2018-12-22T11:32:06.791Z,98696.72
2018-12-22T11:37:10.836Z,98693.91
2018-12-22T11:42:14.992Z,98696.02
2018-12-22T11:47:29.153Z,98697.81
2018-12-22T11:52:33.066Z,98689.50
2018-12-22T11:57:37.375Z,98691.41
2018-12-22T12:02:41.601Z,98697.17
2018-12-22T12:07:45.378Z,98700.48
2018-12-22T12:12:49.190Z,98678.49
2018-12-22T12:19:28.791Z,98689.91
2018-12-22T12:24:32.846Z,98678.39
2018-12-22T12:29:36.787Z,98661.98
2018-12-22T12:34:41.456Z,98666.95
2018-12-22T12:39:45.242Z,98666.61
2018-12-22T12:44:49.010Z,98657.86
2018-12-22T12:49:53.095Z,98658.97
2018-12-22T12:54:57.011Z,98648.94
2018-12-22T13:00:00.897Z,98654.10
2018-12-22T13:05:05.210Z,98654.36
2018-12-22T13:10:10.606Z,98653.87
2018-12-22T13:15:14.372Z,98643.02
2018-12-22T13:20:18.087Z,98643.36
2018-12-22T13:25:21.948Z,98641.19
2018-12-22T13:30:29.746Z,98645.50
2018-12-22T13:35:37.053Z,98630.27
2018-12-22T13:40:43.401Z,98641.29
2018-12-22T13:45:51.131Z,98638.49
2018-12-22T13:50:55.053Z,98645.05
2018-12-22T13:56:04.667Z,98647.05
2018-12-22T14:01:12.156Z,98654.36
2018-12-22T14:06:25.628Z,98661.13
2018-12-22T14:11:29.330Z,98650.61
2018-12-22T14:16:42.826Z,98654.75
2018-12-22T14:21:46.691Z,98650.81
2018-12-22T14:26:54.410Z,98648.11
2018-12-22T14:31:58.216Z,98667.55
2018-12-22T14:37:02.256Z,98659.32
2018-12-22T14:42:05.888Z,98660.64
2018-12-22T14:47:09.951Z,98656.83
2018-12-22T14:52:13.942Z,98643.83
2018-12-22T14:57:19.532Z,98641.53
2018-12-22T15:02:23.555Z,98638.17
2018-12-22T15:07:34.532Z,98637.84
2018-12-22T15:12:40.438Z,98638.42
2018-12-22T15:17:47.655Z,98630.42
2018-12-22T15:22:51.470Z,98626.17
2018-12-22T15:27:55.428Z,98619.70
2018-12-22T15:32:59.339Z,98622.98
2018-12-22T15:38:03.289Z,98630.87
2018-12-22T15:43:07.153Z,98629.00
2018-12-22T15:48:11.064Z,98632.62
2018-12-22T15:53:14.896Z,98632.52
2018-12-22T15:58:18.804Z,98630.63
2018-12-22T16:03:22.681Z,98634.15
2018-12-22T16:08:26.502Z,98644.22
2018-12-22T16:13:30.327Z,98637.78
2018-12-22T16:18:34.260Z,98645.80
2018-12-22T16:23:38.213Z,98642.66
2018-12-22T16:28:57.453Z,98628.63
2018-12-22T16:34:01.243Z,98617.97
2018-12-22T16:39:08.476Z,98630.55
2018-12-22T16:44:16.016Z,98622.59
2018-12-22T16:49:29.725Z,98622.08
2018-12-22T16:54:33.597Z,98621.06
2018-12-22T16:59:37.703Z,98618.91
2018-12-22T17:04:44.322Z,98620.47
2018-12-22T17:09:48.435Z,98622.22
2018-12-22T17:14:52.309Z,98618.32
2018-12-22T17:19:56.327Z,98612.31
2018-12-22T17:25:09.287Z,98615.08
2018-12-22T17:30:13.174Z,98607.27
2018-12-22T17:35:17.269Z,98589.34
2018-12-22T17:40:21.213Z,98592.89
2018-12-22T17:45:25.122Z,98587.23
2018-12-22T17:50:29.004Z,98576.95
2018-12-22T17:55:32.908Z,98579.80
2018-12-22T18:00:36.692Z,98583.63
2018-12-22T18:05:40.630Z,98574.98
2018-12-22T18:10:44.592Z,98571.51
2018-12-22T18:15:48.438Z,98578.77
2018-12-22T18:20:52.530Z,98578.59
2018-12-22T18:25:57.485Z,98577.92
2018-12-22T18:31:01.708Z,98579.36
2018-12-22T18:36:05.798Z,98588.55
2018-12-22T18:41:10.044Z,98574.33
2018-12-22T18:46:13.760Z,98575.22
2018-12-22T18:51:17.661Z,98561.95
2018-12-22T18:56:21.954Z,98554.92
2018-12-22T19:01:25.939Z,98559.99
2018-12-22T19:06:31.018Z,98557.14
2018-12-22T19:11:34.991Z,98556.19
2018-12-22T19:16:40.461Z,98556.06
2018-12-22T19:21:45.051Z,98544.20
2018-12-22T19:26:48.986Z,98545.75
2018-12-22T19:31:52.875Z,98554.94
2018-12-22T19:36:56.858Z,98546.72
2018-12-22T19:42:00.853Z,98548.03
2018-12-22T19:47:04.713Z,98555.77
2018-12-22T19:52:08.535Z,98556.78
2018-12-22T19:57:12.715Z,98565.02
2018-12-22T20:02:16.600Z,98553.02
2018-12-22T20:07:20.525Z,98556.99
2018-12-22T20:12:24.599Z,98550.66
2018-12-22T20:17:28.394Z,98541.66
2018-12-22T20:22:32.156Z,98552.05
2018-12-22T20:27:36.423Z,98550.88
2018-12-22T20:32:40.233Z,98548.38
2018-12-22T20:37:44.022Z,98547.72
2018-12-22T20:42:47.829Z,98549.08
2018-12-22T20:47:51.682Z,98559.36
2018-12-22T20:52:55.587Z,98562.09
2018-12-22T20:57:59.422Z,98557.27
2018-12-22T21:03:04.142Z,98564.00
2018-12-22T21:08:08.146Z,98554.17
2018-12-22T21:13:12.445Z,98546.98
2018-12-22T21:18:16.273Z,98536.56
2018-12-22T21:23:20.116Z,98532.94
2018-12-22T21:28:23.818Z,98532.88
2018-12-22T21:33:27.722Z,98525.59
2018-12-22T21:38:31.806Z,98518.15
2018-12-22T21:43:35.772Z,98517.50
2018-12-22T21:48:39.580Z,98511.52
2018-12-22T21:53:43.551Z,98507.87
2018-12-22T21:58:47.512Z,98505.78
2018-12-22T22:03:51.551Z,98512.67
2018-12-22T22:08:55.456Z,98505.78
2018-12-22T22:13:59.462Z,98505.64
2018-12-22T22:19:03.334Z,98492.70
2018-12-22T22:24:07.121Z,98497.84
2018-12-22T22:29:10.932Z,98482.97
2018-12-22T22:34:14.676Z,98476.70
2018-12-22T22:39:20.600Z,98480.56
2018-12-22T22:44:24.602Z,98473.70
2018-12-22T22:49:28.542Z,98464.99
2018-12-22T22:54:32.354Z,98458.73
2018-12-22T22:59:36.084Z,98465.89
2018-12-22T23:04:39.820Z,98462.48
2018-12-22T23:09:43.575Z,98464.85
2018-12-22T23:14:48.024Z,98450.22
2018-12-22T23:19:52.232Z,98464.69
2018-12-22T23:24:56.065Z,98445.12
2018-12-22T23:30:00.161Z,98445.19
2018-12-22T23:35:04.301Z,98441.34
2018-12-22T23:40:08.615Z,98428.36
2018-12-22T23:45:12.778Z,98435.91
2018-12-22T23:50:17.136Z,98429.73
2018-12-22T23:55:21.166Z,98425.34
